sensor_id;sensor_type;location;lat;lon;timestamp;P1;durP1;ratioP1;P2;durP2;ratioP2
7166;SDS011;3625;51.762;14.320;2023-04-03T00:01:24;5.27;;;3.33;;
7166;SDS011;3625;51.762;14.320;2023-04-03T00:03:52;3.73;;;3.27;;
7166;SDS011;3625;51.762;14.320;2023-04-03T00:06:22;5.23;;;3.50;;
7166;SDS011;3625;51.762;14.320;2023-04-03T00:08:51;4.87;;;3.27;;
7166;SDS011;3625;51.762;14.320;2023-04-03T00:11:21;6.93;;;3.03;;
7166;SDS011;3625;51.762;14.320;2023-04-03T00:13:50;4.83;;;3.50;;
7166;SDS011;3625;51.762;14.320;2023-04-03T00:16:19;3.90;;;3.43;;
7166;SDS011;3625;51.762;14.320;2023-04-03T00:18:47;4.00;;;2.90;;
7166;SDS011;3625;51.762;14.320;2023-04-03T00:21:16;7.00;;;3.73;;
7166;SDS011;3625;51.762;14.320;2023-04-03T00:23:44;5.37;;;3.30;;
7166;SDS011;3625;51.762;14.320;2023-04-03T00:26:13;6.03;;;4.17;;
7166;SDS011;3625;51.762;14.320;2023-04-03T00:28:43;4.73;;;3.87;;
7166;SDS011;3625;51.762;14.320;2023-04-03T00:31:13;4.63;;;3.43;;
7166;SDS011;3625;51.762;14.320;2023-04-03T00:33:43;6.30;;;3.70;;
7166;SDS011;3625;51.762;14.320;2023-04-03T00:36:11;5.33;;;4.07;;
7166;SDS011;3625;51.762;14.320;2023-04-03T00:38:41;5.00;;;3.40;;
7166;SDS011;3625;51.762;14.320;2023-04-03T00:41:09;4.73;;;3.53;;
7166;SDS011;3625;51.762;14.320;2023-04-03T00:43:38;4.27;;;3.10;;
7166;SDS011;3625;51.762;14.320;2023-04-03T00:46:08;4.67;;;3.60;;
7166;SDS011;3625;51.762;14.320;2023-04-03T00:48:38;3.63;;;3.33;;
7166;SDS011;3625;51.762;14.320;2023-04-03T00:51:10;3.60;;;3.30;;
7166;SDS011;3625;51.762;14.320;2023-04-03T00:53:44;3.97;;;3.63;;
7166;SDS011;3625;51.762;14.320;2023-04-03T00:56:16;4.63;;;3.77;;
7166;SDS011;3625;51.762;14.320;2023-04-03T00:58:50;6.07;;;3.63;;
7166;SDS011;3625;51.762;14.320;2023-04-03T01:01:26;4.87;;;3.60;;
7166;SDS011;3625;51.762;14.320;2023-04-03T01:03:58;3.73;;;3.37;;
7166;SDS011;3625;51.762;14.320;2023-04-03T01:06:30;3.83;;;3.50;;
7166;SDS011;3625;51.762;14.320;2023-04-03T01:09:06;4.70;;;3.23;;
7166;SDS011;3625;51.762;14.320;2023-04-03T01:11:35;7.47;;;3.90;;
7166;SDS011;3625;51.762;14.320;2023-04-03T01:14:04;5.87;;;3.70;;
7166;SDS011;3625;51.762;14.320;2023-04-03T01:16:34;4.40;;;3.30;;
7166;SDS011;3625;51.762;14.320;2023-04-03T01:19:03;4.90;;;3.43;;
7166;SDS011;3625;51.762;14.320;2023-04-03T01:24:43;4.67;;;4.00;;
7166;SDS011;3625;51.762;14.320;2023-04-03T01:27:14;4.70;;;3.50;;
7166;SDS011;3625;51.762;14.320;2023-04-03T01:29:43;4.33;;;3.50;;
7166;SDS011;3625;51.762;14.320;2023-04-03T01:32:14;5.23;;;4.27;;
7166;SDS011;3625;51.762;14.320;2023-04-03T01:34:43;5.30;;;4.23;;
7166;SDS011;3625;51.762;14.320;2023-04-03T01:37:11;5.13;;;3.57;;
7166;SDS011;3625;51.762;14.320;2023-04-03T01:39:39;5.07;;;4.10;;
7166;SDS011;3625;51.762;14.320;2023-04-03T01:42:08;5.03;;;3.63;;
7166;SDS011;3625;51.762;14.320;2023-04-03T01:44:41;3.63;;;3.33;;
7166;SDS011;3625;51.762;14.320;2023-04-03T01:47:09;4.10;;;3.53;;
7166;SDS011;3625;51.762;14.320;2023-04-03T01:49:40;5.43;;;4.20;;
7166;SDS011;3625;51.762;14.320;2023-04-03T01:52:09;5.13;;;3.93;;
7166;SDS011;3625;51.762;14.320;2023-04-03T01:54:38;5.27;;;3.70;;
7166;SDS011;3625;51.762;14.320;2023-04-03T01:57:06;3.87;;;3.57;;
7166;SDS011;3625;51.762;14.320;2023-04-03T01:59:35;4.43;;;3.60;;
7166;SDS011;3625;51.762;14.320;2023-04-03T02:02:04;5.40;;;4.13;;
7166;SDS011;3625;51.762;14.320;2023-04-03T02:04:32;4.43;;;3.80;;
7166;SDS011;3625;51.762;14.320;2023-04-03T02:07:03;4.17;;;3.83;;
7166;SDS011;3625;51.762;14.320;2023-04-03T02:09:32;6.40;;;3.60;;
7166;SDS011;3625;51.762;14.320;2023-04-03T02:12:00;6.20;;;3.87;;
7166;SDS011;3625;51.762;14.320;2023-04-03T02:14:30;6.00;;;5.00;;
7166;SDS011;3625;51.762;14.320;2023-04-03T02:16:59;4.57;;;3.80;;
7166;SDS011;3625;51.762;14.320;2023-04-03T02:19:31;5.50;;;4.93;;
7166;SDS011;3625;51.762;14.320;2023-04-03T02:21:59;5.00;;;3.70;;
7166;SDS011;3625;51.762;14.320;2023-04-03T02:24:30;4.73;;;4.00;;
7166;SDS011;3625;51.762;14.320;2023-04-03T02:26:59;4.93;;;4.13;;
7166;SDS011;3625;51.762;14.320;2023-04-03T02:29:28;8.10;;;4.30;;
7166;SDS011;3625;51.762;14.320;2023-04-03T02:31:56;4.30;;;3.80;;
7166;SDS011;3625;51.762;14.320;2023-04-03T02:34:25;7.30;;;4.10;;
7166;SDS011;3625;51.762;14.320;2023-04-03T02:36:55;4.17;;;3.77;;
7166;SDS011;3625;51.762;14.320;2023-04-03T02:39:24;4.10;;;3.50;;
7166;SDS011;3625;51.762;14.320;2023-04-03T02:41:58;4.60;;;4.20;;
7166;SDS011;3625;51.762;14.320;2023-04-03T02:44:39;5.50;;;3.90;;
7166;SDS011;3625;51.762;14.320;2023-04-03T02:47:09;4.13;;;3.73;;
7166;SDS011;3625;51.762;14.320;2023-04-03T02:49:37;4.90;;;3.87;;
7166;SDS011;3625;51.762;14.320;2023-04-03T02:52:06;4.07;;;3.67;;
7166;SDS011;3625;51.762;14.320;2023-04-03T02:54:34;5.60;;;4.37;;
7166;SDS011;3625;51.762;14.320;2023-04-03T02:57:07;4.33;;;3.50;;
7166;SDS011;3625;51.762;14.320;2023-04-03T02:59:36;5.93;;;3.97;;
7166;SDS011;3625;51.762;14.320;2023-04-03T03:02:08;4.30;;;3.77;;
7166;SDS011;3625;51.762;14.320;2023-04-03T03:04:37;4.03;;;3.73;;
7166;SDS011;3625;51.762;14.320;2023-04-03T03:07:05;4.80;;;3.50;;
7166;SDS011;3625;51.762;14.320;2023-04-03T03:09:34;6.37;;;4.30;;
7166;SDS011;3625;51.762;14.320;2023-04-03T03:12:03;4.13;;;3.73;;
7166;SDS011;3625;51.762;14.320;2023-04-03T03:14:34;4.10;;;3.70;;
7166;SDS011;3625;51.762;14.320;2023-04-03T03:17:02;4.77;;;3.90;;
7166;SDS011;3625;51.762;14.320;2023-04-03T03:19:32;5.00;;;4.40;;
7166;SDS011;3625;51.762;14.320;2023-04-03T03:22:01;4.33;;;3.93;;
7166;SDS011;3625;51.762;14.320;2023-04-03T03:24:29;6.07;;;4.20;;
7166;SDS011;3625;51.762;14.320;2023-04-03T03:26:58;5.57;;;4.00;;
7166;SDS011;3625;51.762;14.320;2023-04-03T03:29:26;4.37;;;3.97;;
7166;SDS011;3625;51.762;14.320;2023-04-03T03:31:56;3.93;;;3.63;;
7166;SDS011;3625;51.762;14.320;2023-04-03T03:34:24;4.73;;;3.33;;
7166;SDS011;3625;51.762;14.320;2023-04-03T03:36:53;4.03;;;3.53;;
7166;SDS011;3625;51.762;14.320;2023-04-03T03:39:21;6.10;;;4.20;;
7166;SDS011;3625;51.762;14.320;2023-04-03T03:41:50;7.43;;;3.90;;
7166;SDS011;3625;51.762;14.320;2023-04-03T03:44:19;6.27;;;4.30;;
7166;SDS011;3625;51.762;14.320;2023-04-03T03:46:48;4.97;;;4.00;;
7166;SDS011;3625;51.762;14.320;2023-04-03T03:49:18;5.93;;;3.97;;
7166;SDS011;3625;51.762;14.320;2023-04-03T03:51:47;6.67;;;4.37;;
7166;SDS011;3625;51.762;14.320;2023-04-03T03:54:16;4.03;;;3.50;;
7166;SDS011;3625;51.762;14.320;2023-04-03T03:56:45;4.53;;;4.00;;
7166;SDS011;3625;51.762;14.320;2023-04-03T03:59:13;4.10;;;3.60;;
7166;SDS011;3625;51.762;14.320;2023-04-03T04:01:43;8.17;;;4.00;;
7166;SDS011;3625;51.762;14.320;2023-04-03T04:04:12;4.07;;;3.70;;
7166;SDS011;3625;51.762;14.320;2023-04-03T04:06:42;5.47;;;3.97;;
7166;SDS011;3625;51.762;14.320;2023-04-03T04:09:11;5.03;;;3.80;;
7166;SDS011;3625;51.762;14.320;2023-04-03T04:11:40;4.37;;;3.57;;
7166;SDS011;3625;51.762;14.320;2023-04-03T04:14:11;4.17;;;3.20;;
7166;SDS011;3625;51.762;14.320;2023-04-03T04:16:42;3.73;;;3.43;;
7166;SDS011;3625;51.762;14.320;2023-04-03T04:19:15;4.50;;;3.70;;
7166;SDS011;3625;51.762;14.320;2023-04-03T04:21:45;6.63;;;4.20;;
7166;SDS011;3625;51.762;14.320;2023-04-03T04:24:14;5.20;;;4.03;;
7166;SDS011;3625;51.762;14.320;2023-04-03T04:26:43;5.67;;;4.07;;
7166;SDS011;3625;51.762;14.320;2023-04-03T04:29:14;3.93;;;3.63;;
7166;SDS011;3625;51.762;14.320;2023-04-03T04:31:46;8.23;;;4.67;;
7166;SDS011;3625;51.762;14.320;2023-04-03T04:34:15;4.40;;;4.10;;
7166;SDS011;3625;51.762;14.320;2023-04-03T04:36:45;4.20;;;3.80;;
7166;SDS011;3625;51.762;14.320;2023-04-03T04:39:14;4.63;;;4.17;;
7166;SDS011;3625;51.762;14.320;2023-04-03T04:41:43;4.53;;;3.70;;
7166;SDS011;3625;51.762;14.320;2023-04-03T04:44:12;3.90;;;3.60;;
7166;SDS011;3625;51.762;14.320;2023-04-03T04:46:41;5.33;;;3.90;;
7166;SDS011;3625;51.762;14.320;2023-04-03T04:49:09;5.37;;;3.60;;
7166;SDS011;3625;51.762;14.320;2023-04-03T04:51:38;4.77;;;3.57;;
7166;SDS011;3625;51.762;14.320;2023-04-03T04:54:22;8.53;;;3.97;;
7166;SDS011;3625;51.762;14.320;2023-04-03T04:56:51;6.97;;;3.70;;
7166;SDS011;3625;51.762;14.320;2023-04-03T04:59:20;6.20;;;3.80;;
7166;SDS011;3625;51.762;14.320;2023-04-03T05:01:50;5.03;;;3.67;;
7166;SDS011;3625;51.762;14.320;2023-04-03T05:04:19;4.03;;;3.70;;
7166;SDS011;3625;51.762;14.320;2023-04-03T05:06:52;4.60;;;3.70;;
7166;SDS011;3625;51.762;14.320;2023-04-03T05:09:26;7.97;;;4.00;;
7166;SDS011;3625;51.762;14.320;2023-04-03T05:11:55;5.97;;;3.57;;
7166;SDS011;3625;51.762;14.320;2023-04-03T05:14:27;5.03;;;3.70;;
7166;SDS011;3625;51.762;14.320;2023-04-03T05:17:00;7.60;;;4.40;;
7166;SDS011;3625;51.762;14.320;2023-04-03T05:19:32;4.43;;;4.00;;
7166;SDS011;3625;51.762;14.320;2023-04-03T05:22:02;5.13;;;3.60;;
7166;SDS011;3625;51.762;14.320;2023-04-03T05:24:32;5.57;;;3.80;;
7166;SDS011;3625;51.762;14.320;2023-04-03T05:27:01;5.90;;;3.80;;
7166;SDS011;3625;51.762;14.320;2023-04-03T05:29:33;5.10;;;3.70;;
7166;SDS011;3625;51.762;14.320;2023-04-03T05:32:03;4.10;;;3.70;;
7166;SDS011;3625;51.762;14.320;2023-04-03T05:34:32;5.03;;;3.90;;
7166;SDS011;3625;51.762;14.320;2023-04-03T05:37:02;5.97;;;3.50;;
7166;SDS011;3625;51.762;14.320;2023-04-03T05:39:33;4.43;;;3.70;;
7166;SDS011;3625;51.762;14.320;2023-04-03T05:42:04;6.10;;;3.97;;
7166;SDS011;3625;51.762;14.320;2023-04-03T05:44:33;6.17;;;4.37;;
7166;SDS011;3625;51.762;14.320;2023-04-03T05:47:02;5.33;;;3.83;;
7166;SDS011;3625;51.762;14.320;2023-04-03T05:49:32;5.80;;;3.83;;
7166;SDS011;3625;51.762;14.320;2023-04-03T05:52:01;6.07;;;3.90;;
7166;SDS011;3625;51.762;14.320;2023-04-03T05:54:31;5.30;;;3.77;;
7166;SDS011;3625;51.762;14.320;2023-04-03T05:57:11;7.17;;;4.03;;
7166;SDS011;3625;51.762;14.320;2023-04-03T05:59:41;4.20;;;3.80;;
7166;SDS011;3625;51.762;14.320;2023-04-03T06:02:10;5.60;;;3.80;;
7166;SDS011;3625;51.762;14.320;2023-04-03T06:04:42;5.97;;;3.73;;
7166;SDS011;3625;51.762;14.320;2023-04-03T06:07:11;4.53;;;3.70;;
7166;SDS011;3625;51.762;14.320;2023-04-03T06:09:41;6.03;;;3.80;;
7166;SDS011;3625;51.762;14.320;2023-04-03T06:12:12;4.83;;;3.70;;
7166;SDS011;3625;51.762;14.320;2023-04-03T06:14:41;5.73;;;3.60;;
7166;SDS011;3625;51.762;14.320;2023-04-03T06:17:10;6.20;;;3.50;;
7166;SDS011;3625;51.762;14.320;2023-04-03T06:19:39;8.27;;;3.93;;
7166;SDS011;3625;51.762;14.320;2023-04-03T06:22:08;3.53;;;3.23;;
7166;SDS011;3625;51.762;14.320;2023-04-03T06:24:38;6.10;;;4.03;;
7166;SDS011;3625;51.762;14.320;2023-04-03T06:27:06;9.70;;;4.70;;
7166;SDS011;3625;51.762;14.320;2023-04-03T06:29:38;12.60;;;7.67;;
7166;SDS011;3625;51.762;14.320;2023-04-03T06:32:07;5.00;;;3.57;;
7166;SDS011;3625;51.762;14.320;2023-04-03T06:34:36;3.23;;;3.00;;
7166;SDS011;3625;51.762;14.320;2023-04-03T06:37:04;4.43;;;2.97;;
7166;SDS011;3625;51.762;14.320;2023-04-03T06:39:33;5.00;;;3.20;;
7166;SDS011;3625;51.762;14.320;2023-04-03T06:42:02;3.53;;;3.10;;
7166;SDS011;3625;51.762;14.320;2023-04-03T06:44:36;3.60;;;3.30;;
7166;SDS011;3625;51.762;14.320;2023-04-03T06:47:08;6.90;;;4.20;;
7166;SDS011;3625;51.762;14.320;2023-04-03T06:49:40;4.53;;;3.20;;
7166;SDS011;3625;51.762;14.320;2023-04-03T06:52:09;3.47;;;3.17;;
7166;SDS011;3625;51.762;14.320;2023-04-03T06:54:39;4.10;;;3.10;;
7166;SDS011;3625;51.762;14.320;2023-04-03T06:57:08;5.33;;;3.27;;
7166;SDS011;3625;51.762;14.320;2023-04-03T06:59:38;3.17;;;2.87;;
7166;SDS011;3625;51.762;14.320;2023-04-03T07:02:08;5.77;;;3.37;;
7166;SDS011;3625;51.762;14.320;2023-04-03T07:04:39;3.23;;;2.93;;
7166;SDS011;3625;51.762;14.320;2023-04-03T07:07:08;4.13;;;3.00;;
7166;SDS011;3625;51.762;14.320;2023-04-03T07:09:37;3.30;;;3.00;;
7166;SDS011;3625;51.762;14.320;2023-04-03T07:12:07;4.57;;;3.10;;
7166;SDS011;3625;51.762;14.320;2023-04-03T07:14:38;5.27;;;2.93;;
7166;SDS011;3625;51.762;14.320;2023-04-03T07:17:07;2.63;;;2.43;;
7166;SDS011;3625;51.762;14.320;2023-04-03T07:19:36;3.97;;;2.70;;
7166;SDS011;3625;51.762;14.320;2023-04-03T07:22:04;5.57;;;3.17;;
7166;SDS011;3625;51.762;14.320;2023-04-03T07:24:34;7.10;;;4.17;;
7166;SDS011;3625;51.762;14.320;2023-04-03T07:27:03;3.60;;;2.80;;
7166;SDS011;3625;51.762;14.320;2023-04-03T07:29:32;3.73;;;3.00;;
7166;SDS011;3625;51.762;14.320;2023-04-03T07:32:02;2.93;;;2.73;;
7166;SDS011;3625;51.762;14.320;2023-04-03T07:34:32;3.53;;;2.90;;
7166;SDS011;3625;51.762;14.320;2023-04-03T07:37:00;6.20;;;3.20;;
7166;SDS011;3625;51.762;14.320;2023-04-03T07:39:31;3.80;;;3.00;;
7166;SDS011;3625;51.762;14.320;2023-04-03T07:41:59;4.00;;;2.73;;
7166;SDS011;3625;51.762;14.320;2023-04-03T07:44:28;5.87;;;2.67;;
7166;SDS011;3625;51.762;14.320;2023-04-03T07:46:57;3.90;;;2.73;;
7166;SDS011;3625;51.762;14.320;2023-04-03T07:49:28;4.13;;;3.17;;
7166;SDS011;3625;51.762;14.320;2023-04-03T07:51:57;7.07;;;3.10;;
7166;SDS011;3625;51.762;14.320;2023-04-03T07:54:26;4.50;;;2.93;;
7166;SDS011;3625;51.762;14.320;2023-04-03T07:56:55;4.00;;;2.83;;
7166;SDS011;3625;51.762;14.320;2023-04-03T07:59:27;5.57;;;3.10;;
7166;SDS011;3625;51.762;14.320;2023-04-03T08:01:56;3.87;;;2.93;;
7166;SDS011;3625;51.762;14.320;2023-04-03T08:04:25;4.53;;;2.80;;
7166;SDS011;3625;51.762;14.320;2023-04-03T08:06:55;3.63;;;2.90;;
7166;SDS011;3625;51.762;14.320;2023-04-03T08:09:24;4.93;;;2.50;;
7166;SDS011;3625;51.762;14.320;2023-04-03T08:11:53;4.13;;;2.70;;
7166;SDS011;3625;51.762;14.320;2023-04-03T08:14:21;3.93;;;2.60;;
7166;SDS011;3625;51.762;14.320;2023-04-03T08:16:50;7.17;;;3.13;;
7166;SDS011;3625;51.762;14.320;2023-04-03T08:19:19;3.33;;;2.77;;
7166;SDS011;3625;51.762;14.320;2023-04-03T08:21:53;2.97;;;2.60;;
7166;SDS011;3625;51.762;14.320;2023-04-03T08:24:23;3.17;;;2.80;;
7166;SDS011;3625;51.762;14.320;2023-04-03T08:26:52;3.43;;;2.80;;
7166;SDS011;3625;51.762;14.320;2023-04-03T08:29:20;5.30;;;2.80;;
7166;SDS011;3625;51.762;14.320;2023-04-03T08:31:50;4.10;;;2.90;;
7166;SDS011;3625;51.762;14.320;2023-04-03T08:34:19;3.23;;;2.73;;
7166;SDS011;3625;51.762;14.320;2023-04-03T08:36:48;4.10;;;3.10;;
7166;SDS011;3625;51.762;14.320;2023-04-03T08:39:18;3.93;;;2.63;;
7166;SDS011;3625;51.762;14.320;2023-04-03T08:41:47;2.90;;;2.70;;
7166;SDS011;3625;51.762;14.320;2023-04-03T08:44:22;3.33;;;2.70;;
7166;SDS011;3625;51.762;14.320;2023-04-03T08:47:04;4.43;;;2.93;;
7166;SDS011;3625;51.762;14.320;2023-04-03T08:49:51;3.30;;;3.07;;
7166;SDS011;3625;51.762;14.320;2023-04-03T08:52:25;6.03;;;2.87;;
7166;SDS011;3625;51.762;14.320;2023-04-03T08:55:06;3.40;;;2.60;;
7166;SDS011;3625;51.762;14.320;2023-04-03T08:57:49;5.60;;;2.63;;
7166;SDS011;3625;51.762;14.320;2023-04-03T09:00:26;4.03;;;2.43;;
7166;SDS011;3625;51.762;14.320;2023-04-03T09:03:05;4.47;;;2.33;;
7166;SDS011;3625;51.762;14.320;2023-04-03T09:05:41;3.30;;;2.60;;
7166;SDS011;3625;51.762;14.320;2023-04-03T09:08:24;2.63;;;2.43;;
7166;SDS011;3625;51.762;14.320;2023-04-03T09:11:09;4.77;;;2.67;;
7166;SDS011;3625;51.762;14.320;2023-04-03T09:13:48;4.03;;;2.53;;
7166;SDS011;3625;51.762;14.320;2023-04-03T09:16:29;3.77;;;2.33;;
7166;SDS011;3625;51.762;14.320;2023-04-03T09:19:14;2.20;;;2.00;;
7166;SDS011;3625;51.762;14.320;2023-04-03T09:21:52;3.27;;;2.23;;
7166;SDS011;3625;51.762;14.320;2023-04-03T09:24:24;3.30;;;2.47;;
7166;SDS011;3625;51.762;14.320;2023-04-03T09:26:56;2.60;;;2.03;;
7166;SDS011;3625;51.762;14.320;2023-04-03T09:29:28;2.47;;;2.13;;
7166;SDS011;3625;51.762;14.320;2023-04-03T09:31:58;3.33;;;2.10;;
7166;SDS011;3625;51.762;14.320;2023-04-03T09:34:32;2.50;;;2.13;;
7166;SDS011;3625;51.762;14.320;2023-04-03T09:37:04;4.57;;;2.20;;
7166;SDS011;3625;51.762;14.320;2023-04-03T09:39:48;3.47;;;2.30;;
7166;SDS011;3625;51.762;14.320;2023-04-03T09:42:21;3.00;;;2.17;;
7166;SDS011;3625;51.762;14.320;2023-04-03T09:44:53;2.90;;;2.03;;
7166;SDS011;3625;51.762;14.320;2023-04-03T09:47:24;2.37;;;2.17;;
7166;SDS011;3625;51.762;14.320;2023-04-03T09:50:09;2.53;;;2.10;;
7166;SDS011;3625;51.762;14.320;2023-04-03T09:52:50;2.00;;;1.90;;
7166;SDS011;3625;51.762;14.320;2023-04-03T09:55:20;5.30;;;2.70;;
7166;SDS011;3625;51.762;14.320;2023-04-03T09:57:55;2.83;;;2.20;;
7166;SDS011;3625;51.762;14.320;2023-04-03T10:00:28;2.83;;;2.20;;
7166;SDS011;3625;51.762;14.320;2023-04-03T10:03:03;3.33;;;1.93;;
7166;SDS011;3625;51.762;14.320;2023-04-03T10:05:34;3.40;;;2.30;;
7166;SDS011;3625;51.762;14.320;2023-04-03T10:08:19;5.50;;;2.40;;
7166;SDS011;3625;51.762;14.320;2023-04-03T10:11:08;2.00;;;1.90;;
7166;SDS011;3625;51.762;14.320;2023-04-03T10:13:51;2.40;;;2.20;;
7166;SDS011;3625;51.762;14.320;2023-04-03T10:16:27;2.67;;;2.00;;
7166;SDS011;3625;51.762;14.320;2023-04-03T10:22:04;3.55;;;2.30;;
7166;SDS011;3625;51.762;14.320;2023-04-03T10:24:55;2.40;;;2.03;;
7166;SDS011;3625;51.762;14.320;2023-04-03T10:27:35;2.63;;;2.00;;
7166;SDS011;3625;51.762;14.320;2023-04-03T10:30:29;3.20;;;2.17;;
7166;SDS011;3625;51.762;14.320;2023-04-03T10:33:22;3.43;;;2.20;;
7166;SDS011;3625;51.762;14.320;2023-04-03T10:36:17;2.53;;;2.00;;
7166;SDS011;3625;51.762;14.320;2023-04-03T10:39:02;2.80;;;2.20;;
7166;SDS011;3625;51.762;14.320;2023-04-03T10:41:50;2.07;;;1.80;;
7166;SDS011;3625;51.762;14.320;2023-04-03T10:44:46;3.53;;;2.23;;
7166;SDS011;3625;51.762;14.320;2023-04-03T10:47:32;2.20;;;2.00;;
7166;SDS011;3625;51.762;14.320;2023-04-03T10:53:12;3.57;;;2.20;;
7166;SDS011;3625;51.762;14.320;2023-04-03T10:55:53;1.90;;;1.70;;
7166;SDS011;3625;51.762;14.320;2023-04-03T10:58:35;3.20;;;1.90;;
7166;SDS011;3625;51.762;14.320;2023-04-03T11:01:11;3.10;;;1.93;;
7166;SDS011;3625;51.762;14.320;2023-04-03T11:03:49;2.30;;;2.00;;
7166;SDS011;3625;51.762;14.320;2023-04-03T11:06:25;2.70;;;1.80;;
7166;SDS011;3625;51.762;14.320;2023-04-03T11:09:03;2.03;;;1.83;;
7166;SDS011;3625;51.762;14.320;2023-04-03T11:11:43;3.47;;;2.20;;
7166;SDS011;3625;51.762;14.320;2023-04-03T11:14:14;2.00;;;1.80;;
7166;SDS011;3625;51.762;14.320;2023-04-03T11:16:54;3.70;;;1.93;;
7166;SDS011;3625;51.762;14.320;2023-04-03T11:19:39;2.67;;;1.87;;
7166;SDS011;3625;51.762;14.320;2023-04-03T11:22:18;3.00;;;2.00;;
7166;SDS011;3625;51.762;14.320;2023-04-03T11:24:59;2.73;;;1.83;;
7166;SDS011;3625;51.762;14.320;2023-04-03T11:27:42;4.25;;;2.10;;
7166;SDS011;3625;51.762;14.320;2023-04-03T11:30:18;3.15;;;2.20;;
7166;SDS011;3625;51.762;14.320;2023-04-03T11:33:04;2.30;;;2.10;;
7166;SDS011;3625;51.762;14.320;2023-04-03T11:36:12;2.80;;;2.30;;
7166;SDS011;3625;51.762;14.320;2023-04-03T11:39:06;2.80;;;2.10;;
7166;SDS011;3625;51.762;14.320;2023-04-03T11:41:47;3.50;;;2.05;;
7166;SDS011;3625;51.762;14.320;2023-04-03T11:44:29;2.10;;;2.00;;
7166;SDS011;3625;51.762;14.320;2023-04-03T11:47:04;3.25;;;2.35;;
7166;SDS011;3625;51.762;14.320;2023-04-03T11:49:53;2.33;;;2.13;;
7166;SDS011;3625;51.762;14.320;2023-04-03T11:55:57;2.27;;;2.07;;
7166;SDS011;3625;51.762;14.320;2023-04-03T11:58:29;2.10;;;2.00;;
7166;SDS011;3625;51.762;14.320;2023-04-03T12:01:06;2.10;;;1.90;;
7166;SDS011;3625;51.762;14.320;2023-04-03T12:12:56;2.50;;;2.03;;
7166;SDS011;3625;51.762;14.320;2023-04-03T12:24:37;2.40;;;1.90;;
7166;SDS011;3625;51.762;14.320;2023-04-03T12:30:13;2.27;;;2.00;;
7166;SDS011;3625;51.762;14.320;2023-04-03T12:35:55;4.50;;;2.30;;
7166;SDS011;3625;51.762;14.320;2023-04-03T12:41:43;3.20;;;2.07;;
7166;SDS011;3625;51.762;14.320;2023-04-03T12:44:30;2.80;;;1.90;;
7166;SDS011;3625;51.762;14.320;2023-04-03T12:47:22;2.40;;;2.10;;
7166;SDS011;3625;51.762;14.320;2023-04-03T12:49:55;2.17;;;1.90;;
7166;SDS011;3625;51.762;14.320;2023-04-03T12:52:30;2.37;;;1.80;;
7166;SDS011;3625;51.762;14.320;2023-04-03T12:55:08;2.63;;;2.00;;
7166;SDS011;3625;51.762;14.320;2023-04-03T12:57:46;3.37;;;2.10;;
7166;SDS011;3625;51.762;14.320;2023-04-03T13:00:28;3.30;;;2.00;;
7166;SDS011;3625;51.762;14.320;2023-04-03T13:03:01;1.93;;;1.80;;
7166;SDS011;3625;51.762;14.320;2023-04-03T13:05:32;2.87;;;2.07;;
7166;SDS011;3625;51.762;14.320;2023-04-03T13:08:03;2.43;;;1.77;;
7166;SDS011;3625;51.762;14.320;2023-04-03T13:10:43;2.13;;;2.03;;
7166;SDS011;3625;51.762;14.320;2023-04-03T13:13:21;2.80;;;1.80;;
7166;SDS011;3625;51.762;14.320;2023-04-03T13:15:52;3.93;;;2.33;;
7166;SDS011;3625;51.762;14.320;2023-04-03T13:18:22;2.00;;;1.80;;
7166;SDS011;3625;51.762;14.320;2023-04-03T13:20:56;5.00;;;2.00;;
7166;SDS011;3625;51.762;14.320;2023-04-03T13:23:30;2.73;;;2.00;;
7166;SDS011;3625;51.762;14.320;2023-04-03T13:26:02;3.33;;;2.47;;
7166;SDS011;3625;51.762;14.320;2023-04-03T13:28:32;2.67;;;2.13;;
7166;SDS011;3625;51.762;14.320;2023-04-03T13:31:06;3.33;;;2.07;;
7166;SDS011;3625;51.762;14.320;2023-04-03T13:33:52;2.50;;;2.20;;
7166;SDS011;3625;51.762;14.320;2023-04-03T13:36:26;4.63;;;2.50;;
7166;SDS011;3625;51.762;14.320;2023-04-03T13:39:01;2.50;;;2.30;;
7166;SDS011;3625;51.762;14.320;2023-04-03T13:41:33;3.77;;;2.10;;
7166;SDS011;3625;51.762;14.320;2023-04-03T13:47:18;4.17;;;2.13;;
7166;SDS011;3625;51.762;14.320;2023-04-03T13:49:58;2.20;;;2.10;;
7166;SDS011;3625;51.762;14.320;2023-04-03T13:52:33;3.50;;;2.67;;
7166;SDS011;3625;51.762;14.320;2023-04-03T13:55:15;3.10;;;1.90;;
7166;SDS011;3625;51.762;14.320;2023-04-03T13:57:53;3.77;;;1.93;;
7166;SDS011;3625;51.762;14.320;2023-04-03T14:00:30;3.83;;;2.10;;
7166;SDS011;3625;51.762;14.320;2023-04-03T14:03:16;2.23;;;2.00;;
7166;SDS011;3625;51.762;14.320;2023-04-03T14:05:49;2.47;;;2.20;;
7166;SDS011;3625;51.762;14.320;2023-04-03T14:08:18;2.10;;;1.90;;
7166;SDS011;3625;51.762;14.320;2023-04-03T14:11:01;2.27;;;2.10;;
7166;SDS011;3625;51.762;14.320;2023-04-03T14:13:30;3.03;;;1.67;;
7166;SDS011;3625;51.762;14.320;2023-04-03T14:15:59;4.13;;;2.23;;
7166;SDS011;3625;51.762;14.320;2023-04-03T14:18:42;2.20;;;2.00;;
7166;SDS011;3625;51.762;14.320;2023-04-03T14:21:11;3.07;;;2.10;;
7166;SDS011;3625;51.762;14.320;2023-04-03T14:26:12;2.27;;;2.00;;
7166;SDS011;3625;51.762;14.320;2023-04-03T14:28:44;2.40;;;2.10;;
7166;SDS011;3625;51.762;14.320;2023-04-03T14:31:15;3.43;;;2.80;;
7166;SDS011;3625;51.762;14.320;2023-04-03T14:33:47;3.03;;;2.30;;
7166;SDS011;3625;51.762;14.320;2023-04-03T14:36:16;2.40;;;2.20;;
7166;SDS011;3625;51.762;14.320;2023-04-03T14:38:49;2.73;;;2.53;;
7166;SDS011;3625;51.762;14.320;2023-04-03T14:41:19;2.33;;;2.20;;
7166;SDS011;3625;51.762;14.320;2023-04-03T14:43:51;3.43;;;2.30;;
7166;SDS011;3625;51.762;14.320;2023-04-03T14:46:21;2.20;;;2.00;;
7166;SDS011;3625;51.762;14.320;2023-04-03T14:49:11;4.10;;;2.43;;
7166;SDS011;3625;51.762;14.320;2023-04-03T14:51:43;2.73;;;2.13;;
7166;SDS011;3625;51.762;14.320;2023-04-03T14:54:13;5.47;;;2.80;;
7166;SDS011;3625;51.762;14.320;2023-04-03T14:56:45;3.33;;;2.37;;
7166;SDS011;3625;51.762;14.320;2023-04-03T14:59:14;3.43;;;2.37;;
7166;SDS011;3625;51.762;14.320;2023-04-03T15:01:43;2.83;;;2.37;;
7166;SDS011;3625;51.762;14.320;2023-04-03T15:04:14;3.20;;;2.40;;
7166;SDS011;3625;51.762;14.320;2023-04-03T15:06:44;2.93;;;2.30;;
7166;SDS011;3625;51.762;14.320;2023-04-03T15:09:19;2.57;;;2.20;;
7166;SDS011;3625;51.762;14.320;2023-04-03T15:11:50;2.63;;;2.43;;
7166;SDS011;3625;51.762;14.320;2023-04-03T15:14:21;2.20;;;2.00;;
7166;SDS011;3625;51.762;14.320;2023-04-03T15:17:02;2.53;;;2.33;;
7166;SDS011;3625;51.762;14.320;2023-04-03T15:19:36;4.03;;;2.47;;
7166;SDS011;3625;51.762;14.320;2023-04-03T15:22:06;2.43;;;2.23;;
7166;SDS011;3625;51.762;14.320;2023-04-03T15:24:36;2.30;;;2.10;;
7166;SDS011;3625;51.762;14.320;2023-04-03T15:27:04;2.87;;;2.47;;
7166;SDS011;3625;51.762;14.320;2023-04-03T15:29:33;2.37;;;2.27;;
7166;SDS011;3625;51.762;14.320;2023-04-03T15:32:02;2.60;;;2.40;;
7166;SDS011;3625;51.762;14.320;2023-04-03T15:34:31;2.77;;;2.40;;
7166;SDS011;3625;51.762;14.320;2023-04-03T15:37:01;2.60;;;2.40;;
7166;SDS011;3625;51.762;14.320;2023-04-03T15:39:30;2.30;;;2.10;;
7166;SDS011;3625;51.762;14.320;2023-04-03T15:41:59;4.40;;;2.50;;
7166;SDS011;3625;51.762;14.320;2023-04-03T15:44:32;2.63;;;2.43;;
7166;SDS011;3625;51.762;14.320;2023-04-03T15:47:02;2.20;;;2.10;;
7166;SDS011;3625;51.762;14.320;2023-04-03T15:49:31;2.40;;;2.20;;
7166;SDS011;3625;51.762;14.320;2023-04-03T15:52:02;4.43;;;2.67;;
7166;SDS011;3625;51.762;14.320;2023-04-03T15:54:31;4.23;;;2.77;;
7166;SDS011;3625;51.762;14.320;2023-04-03T15:57:00;2.30;;;1.97;;
7166;SDS011;3625;51.762;14.320;2023-04-03T15:59:28;2.50;;;2.30;;
7166;SDS011;3625;51.762;14.320;2023-04-03T16:01:58;2.47;;;2.27;;
7166;SDS011;3625;51.762;14.320;2023-04-03T16:04:31;4.73;;;2.70;;
7166;SDS011;3625;51.762;14.320;2023-04-03T16:07:02;2.90;;;2.30;;
7166;SDS011;3625;51.762;14.320;2023-04-03T16:09:31;2.47;;;2.27;;
7166;SDS011;3625;51.762;14.320;2023-04-03T16:12:01;2.60;;;2.40;;
7166;SDS011;3625;51.762;14.320;2023-04-03T16:14:31;2.20;;;2.03;;
7166;SDS011;3625;51.762;14.320;2023-04-03T16:16:59;2.60;;;2.40;;
7166;SDS011;3625;51.762;14.320;2023-04-03T16:19:28;2.97;;;2.70;;